Tropical Cyclones
[Index]
Main Index Home Page Stock Weather Photos Extreme Storms Discussion Storm News and Storm Chasing Reports Tropical Cyclones / Hurricanes / Typhoons Weather Data and Links Wild Fires / Bushfires Weather Observation Techniques Weather Picture Catalogue Tornado Pictures and Reports Stock Video Footage and DVDs for sale
Season 2015-2016 Tropical Cyclone TATIANA Track Map
Season 2015-2016 Summaries (Operational Data): [AU] [SIO] [SPAC] [SH]
<<- Previous TC | 2015-2016 Season | Next TC ->>

click for intensity scale information  Lat/long Grid: Show Hide

 Date Labels: Show Hide

Operational Tropical Cyclone Data : JTWC Advisories

Name: TATIANA
Number: 1612

05 Feb 2016 00:00 UTC to 17 Feb 2016 06:00 UTC

    date/time    lat    long     hPa   cat  kts
2016-02-05 00    7.8   158.3    1010         15          
2016-02-05 06    8.9   158.3    1010         15          
2016-02-05 12    9.9   158.3    1010         15          
2016-02-05 18   11.0   158.4    1010         15          
2016-02-06 00   12.4   158.9    1005         15          
2016-02-06 06   13.1   159.7    1010         15          
2016-02-06 12   13.7   159.7    1010         15          
2016-02-06 18   13.8   159.0    1005         15          
2016-02-07 00   14.2   158.8    1007         15          
2016-02-07 06   14.9   158.3    1010         15          
2016-02-07 12   15.4   157.7    1010         15          
2016-02-07 18   15.7   157.2    1010         15          
2016-02-08 00   15.8   156.6    1010         15          
2016-02-08 06   15.8   156.3    1008         15          
2016-02-08 12   15.8   156.0    1007         20          
2016-02-08 18   15.9   155.6    1005         20          
2016-02-09 00   16.1   155.2    1002         25          
2016-02-09 06   16.2   154.8    1001         25          
2016-02-09 12   16.2   154.6    1004         25          
2016-02-09 18   16.0   154.6    1003         25          
2016-02-10 00   16.0   154.6     999         30          
2016-02-10 06   15.7   155.5     999         30          
2016-02-10 12   16.2   155.9    1000         30          
2016-02-10 18   16.5   156.5     996    1    35          
2016-02-11 00   16.9   157.4     996    1    35          
2016-02-11 06   16.9   157.9     989    1    45          
2016-02-11 12   16.8   158.5     982    2    55          
2016-02-11 18   17.1   158.9     982    2    55          
2016-02-12 00   17.5   159.3     982    2    55          
2016-02-12 06   18.1   159.8     982    2    55          
2016-02-12 12   18.9   160.0     985    2    50          
2016-02-12 18   19.9   160.3     985    2    50          
2016-02-13 00   21.0   160.5     985    2    50          
2016-02-13 06   22.3   160.6     985    2    50          
2016-02-13 12   23.9   160.5     996    1    35          
2016-02-13 18   25.5   159.9     996    1    35          
2016-02-14 00   25.6   159.8                             
2016-02-14 06   26.1   160.1                             
2016-02-14 12   26.2   159.9                             
2016-02-14 18   26.3   159.6                             
2016-02-15 00   26.5   160.5                             
2016-02-15 06   25.3   159.2                             
2016-02-15 12   23.5   158.6                             
2016-02-15 18   22.4   158.2                             
2016-02-16 00   22.1   158.2                             
2016-02-16 06   21.2   158.6                             
2016-02-16 12   21.1   159.4                             
2016-02-16 18   20.1   159.6                             
2016-02-17 00   20.0   159.2                             
2016-02-17 06   18.1   159.3                             
Winds are 10-min average.

Tropical cyclone tracks developed by Michael Bath using operational warnings and advisories and Google Maps.


[Australian Severe Weather index] [Copyright Notice] [Email Contacts] [Search This Site] [Privacy Policy]
Document: tropical_cyclone_tatiana.htm Updated: 2 May 2017